createdAt,value
2022-09-04T00:02:25.579Z,14.45
2022-09-04T00:05:06.729Z,14.48
2022-09-04T00:08:05.027Z,14.55
2022-09-04T00:10:56.545Z,12.25
2022-09-04T00:13:27.668Z,14.55
2022-09-04T00:16:06.504Z,17.45
2022-09-04T00:18:42.123Z,12.75
2022-09-04T00:21:14.591Z,12.15
2022-09-04T00:23:51.840Z,12.50
2022-09-04T00:26:50.361Z,15.90
2022-09-04T00:29:26.089Z,11.32
2022-09-04T00:32:02.110Z,16.35
2022-09-04T00:34:55.312Z,13.45
2022-09-04T00:37:27.050Z,12.77
2022-09-04T00:40:15.615Z,16.85
2022-09-04T00:42:51.509Z,13.73
2022-09-04T00:45:44.424Z,15.40
2022-09-04T00:48:37.479Z,16.27
2022-09-04T00:51:32.910Z,15.20
2022-09-04T00:54:17.686Z,15.18
2022-09-04T00:57:14.054Z,17.08
2022-09-04T00:59:59.160Z,15.50
2022-09-04T01:02:58.711Z,13.68
2022-09-04T01:05:45.540Z,14.93
2022-09-04T01:08:49.289Z,15.32
2022-09-04T01:11:47.005Z,18.50
2022-09-04T01:14:40.262Z,15.10
2022-09-04T01:17:24.289Z,15.70
2022-09-04T01:19:59.061Z,16.67
2022-09-04T01:22:41.459Z,14.82
2022-09-04T01:25:29.092Z,23.20
2022-09-04T01:28:16.893Z,14.93
2022-09-04T01:30:51.168Z,17.20
2022-09-04T01:33:44.646Z,19.95
2022-09-04T01:36:20.325Z,15.50
2022-09-04T01:38:58.954Z,15.63
2022-09-04T01:41:38.633Z,24.23
2022-09-04T01:44:08.309Z,18.63
2022-09-04T01:46:38.003Z,17.17
2022-09-04T01:49:10.543Z,20.48
2022-09-04T01:51:54.235Z,23.67
2022-09-04T01:54:52.371Z,27.52
2022-09-04T01:57:37.106Z,20.48
2022-09-04T02:00:17.179Z,19.77
2022-09-04T02:02:44.187Z,18.77
2022-09-04T02:05:38.040Z,21.55
2022-09-04T02:08:29.971Z,19.88
2022-09-04T02:11:20.020Z,19.20
2022-09-04T02:14:34.630Z,22.58
2022-09-04T02:17:01.131Z,18.08
2022-09-04T02:19:41.302Z,19.35
2022-09-04T02:22:14.714Z,16.63
2022-09-04T02:24:41.321Z,19.67
2022-09-04T02:27:23.317Z,16.98
2022-09-04T02:29:59.347Z,21.50
2022-09-04T02:32:32.854Z,21.48
2022-09-04T02:35:09.838Z,25.02
2022-09-04T02:37:56.355Z,16.55
2022-09-04T02:40:25.753Z,24.65
2022-09-04T02:43:19.451Z,17.45
2022-09-04T02:46:00.135Z,22.70
2022-09-04T02:49:09.686Z,20.50
2022-09-04T02:51:54.064Z,21.02
2022-09-04T02:54:41.574Z,24.05
2022-09-04T02:57:33.479Z,20.35
2022-09-04T03:00:39.463Z,24.10
2022-09-04T03:03:31.853Z,19.85
2022-09-04T03:06:33.149Z,21.15
2022-09-04T03:09:07.867Z,22.00
2022-09-04T03:11:44.545Z,25.88
2022-09-04T03:14:34.279Z,23.88
2022-09-04T03:17:10.524Z,21.52
2022-09-04T03:19:50.825Z,21.83
2022-09-04T03:22:48.939Z,24.13
2022-09-04T03:25:36.799Z,23.58
2022-09-04T03:28:03.861Z,23.30
2022-09-04T03:30:35.963Z,21.02
2022-09-04T03:33:14.861Z,18.30
2022-09-04T03:36:00.090Z,21.55
2022-09-04T03:39:04.362Z,21.55
2022-09-04T03:42:06.225Z,16.98
2022-09-04T03:44:56.712Z,20.60
2022-09-04T03:47:47.750Z,18.77
2022-09-04T03:50:35.643Z,19.38
2022-09-04T03:53:29.929Z,18.80
2022-09-04T03:56:02.461Z,19.75
2022-09-04T03:59:05.720Z,18.63
2022-09-04T04:01:43.893Z,17.23
2022-09-04T04:04:28.366Z,17.92
2022-09-04T04:07:11.897Z,22.15
2022-09-04T04:10:08.855Z,19.85
2022-09-04T04:12:49.969Z,16.00
2022-09-04T04:15:33.796Z,20.77
2022-09-04T04:18:13.988Z,17.35
2022-09-04T04:20:47.773Z,16.85
2022-09-04T04:23:56.907Z,17.05
2022-09-04T04:26:40.542Z,15.95
2022-09-04T04:29:19.398Z,21.55
2022-09-04T04:32:10.588Z,16.52
2022-09-04T04:34:47.614Z,16.60
2022-09-04T04:37:24.284Z,19.38
2022-09-04T04:40:38.491Z,16.77
2022-09-04T04:43:15.958Z,17.30
2022-09-04T04:46:25.776Z,17.30
2022-09-04T04:49:10.805Z,17.98
2022-09-04T04:52:16.785Z,16.42
2022-09-04T04:54:52.244Z,14.70
2022-09-04T04:57:36.791Z,15.57
2022-09-04T05:00:27.553Z,16.65
2022-09-04T05:03:19.622Z,14.60
2022-09-04T05:06:36.146Z,15.45
2022-09-04T05:09:14.801Z,18.60
2022-09-04T05:11:53.844Z,13.82
2022-09-04T05:14:38.824Z,17.25
2022-09-04T05:17:38.920Z,17.27
2022-09-04T05:20:21.893Z,14.32
2022-09-04T05:22:54.547Z,15.18
2022-09-04T05:25:24.712Z,15.07
2022-09-04T05:27:57.133Z,17.17
2022-09-04T05:30:38.150Z,16.17
2022-09-04T05:33:18.354Z,14.52
2022-09-04T05:36:00.129Z,13.13
2022-09-04T05:38:34.874Z,15.90
2022-09-04T05:41:15.189Z,14.80
2022-09-04T05:43:53.944Z,13.43
2022-09-04T05:46:45.299Z,13.82
2022-09-04T05:49:54.617Z,12.80
2022-09-04T05:52:33.079Z,14.38
2022-09-04T05:55:02.378Z,14.15
2022-09-04T05:57:37.344Z,14.77
2022-09-04T06:00:12.640Z,12.50
2022-09-04T06:03:16.520Z,12.82
2022-09-04T06:06:01.772Z,13.30
2022-09-04T06:09:02.204Z,13.02
2022-09-04T06:11:28.722Z,15.05
2022-09-04T06:14:07.510Z,13.27
2022-09-04T06:16:53.105Z,12.75
2022-09-04T06:19:37.750Z,13.30
2022-09-04T06:22:25.458Z,13.13
2022-09-04T06:25:27.278Z,13.25
2022-09-04T06:28:29.673Z,14.07
2022-09-04T06:30:59.059Z,11.85
2022-09-04T06:33:55.825Z,12.23
2022-09-04T06:37:04.421Z,13.38
2022-09-04T06:40:01.742Z,14.93
2022-09-04T06:43:09.025Z,12.65
2022-09-04T06:45:44.166Z,10.88
2022-09-04T06:48:26.351Z,15.88
2022-09-04T06:51:18.828Z,12.05
2022-09-04T06:54:34.712Z,15.30
2022-09-04T06:57:07.571Z,12.88
2022-09-04T06:59:57.529Z,9.57
2022-09-04T07:03:01.170Z,14.50
2022-09-04T07:05:52.444Z,12.23
2022-09-04T07:08:37.694Z,12.38
2022-09-04T07:11:14.751Z,8.70
2022-09-04T07:14:05.594Z,11.63
2022-09-04T07:16:41.928Z,12.93
2022-09-04T07:19:48.641Z,11.18
2022-09-04T07:22:21.073Z,11.60
2022-09-04T07:25:02.552Z,10.25
2022-09-04T07:27:51.155Z,12.48
2022-09-04T07:30:20.088Z,10.48
2022-09-04T07:32:54.390Z,12.90
2022-09-04T07:35:56.510Z,12.05
2022-09-04T07:38:26.012Z,16.42
2022-09-04T07:40:55.635Z,9.93
2022-09-04T07:43:26.716Z,13.90
2022-09-04T07:46:05.744Z,9.45
2022-09-04T07:48:44.570Z,9.52
2022-09-04T07:51:17.820Z,10.45
2022-09-04T07:54:05.775Z,11.13
2022-09-04T07:56:35.383Z,11.70
2022-09-04T07:59:25.232Z,14.98
2022-09-04T08:02:07.082Z,11.32
2022-09-04T08:05:11.370Z,13.00
2022-09-04T08:07:37.893Z,13.18
2022-09-04T08:10:04.374Z,18.40
2022-09-04T08:12:45.677Z,11.85
2022-09-04T08:15:21.674Z,12.93
2022-09-04T08:18:21.592Z,12.65
2022-09-04T08:21:11.483Z,11.20
2022-09-04T08:24:04.350Z,12.93
2022-09-04T08:26:52.725Z,12.35
2022-09-04T08:29:31.192Z,11.05
2022-09-04T08:32:03.581Z,20.08
2022-09-04T08:34:50.496Z,14.85
2022-09-04T08:37:28.321Z,14.02
2022-09-04T08:40:19.737Z,11.85
2022-09-04T08:43:10.587Z,10.30
2022-09-04T08:46:06.641Z,12.75
2022-09-04T08:48:42.489Z,13.48
2022-09-04T08:51:24.108Z,16.15
2022-09-04T08:54:20.270Z,13.73
2022-09-04T08:57:12.004Z,11.52
2022-09-04T08:59:54.286Z,13.43
2022-09-04T09:02:35.803Z,11.57
2022-09-04T09:05:55.767Z,10.93
2022-09-04T09:08:56.661Z,10.35
2022-09-04T09:12:09.339Z,13.10
2022-09-04T09:15:11.955Z,14.18
2022-09-04T09:17:45.130Z,10.43
2022-09-04T09:20:27.262Z,13.90
2022-09-04T09:23:19.556Z,10.77
2022-09-04T09:25:59.421Z,9.85
2022-09-04T09:28:35.256Z,12.95
2022-09-04T09:31:29.630Z,9.52
2022-09-04T09:34:32.188Z,11.05
2022-09-04T09:37:31.038Z,11.40
2022-09-04T09:40:16.114Z,7.43
2022-09-04T09:43:01.178Z,11.23
2022-09-04T09:45:55.673Z,7.50
2022-09-04T09:48:46.617Z,7.47
2022-09-04T09:51:56.939Z,7.80
2022-09-04T09:54:37.971Z,7.63
2022-09-04T09:57:44.458Z,8.23
2022-09-04T10:00:15.415Z,5.90
2022-09-04T10:03:11.288Z,6.30
2022-09-04T10:05:56.094Z,7.05
2022-09-04T10:08:35.713Z,6.13
2022-09-04T10:11:33.509Z,4.85
2022-09-04T10:14:15.312Z,4.10
2022-09-04T10:16:58.310Z,4.78
2022-09-04T10:20:08.602Z,4.30
2022-09-04T10:23:09.318Z,9.68
2022-09-04T10:25:38.877Z,4.90
2022-09-04T10:28:32.820Z,8.55
2022-09-04T10:31:17.907Z,4.53
2022-09-04T10:34:24.180Z,7.32
2022-09-04T10:37:17.589Z,3.88
2022-09-04T10:40:21.137Z,4.60
2022-09-04T10:43:09.670Z,4.10
2022-09-04T10:45:46.889Z,5.20
2022-09-04T10:48:40.736Z,3.10
2022-09-04T10:51:22.330Z,3.85
2022-09-04T10:53:58.222Z,3.25
2022-09-04T10:56:35.370Z,2.83
2022-09-04T10:59:23.294Z,4.53
2022-09-04T11:02:12.300Z,3.70
2022-09-04T11:05:07.940Z,3.80
2022-09-04T11:08:06.951Z,2.42
2022-09-04T11:10:53.151Z,7.53
2022-09-04T11:14:07.857Z,4.47
2022-09-04T11:16:50.609Z,6.07
2022-09-04T11:19:54.920Z,2.58
2022-09-04T11:22:46.113Z,6.53
2022-09-04T11:25:52.132Z,3.85
2022-09-04T11:28:47.355Z,5.13
2022-09-04T11:31:35.061Z,1.73
2022-09-04T11:34:49.079Z,2.20
2022-09-04T11:37:34.101Z,3.47
2022-09-04T11:40:19.048Z,1.63
2022-09-04T11:43:15.391Z,5.07
2022-09-04T11:46:29.228Z,2.17
2022-09-04T11:49:40.761Z,2.33
2022-09-04T11:52:14.851Z,2.25
2022-09-04T11:55:14.308Z,2.60
2022-09-04T11:58:18.797Z,2.28
2022-09-04T12:01:04.082Z,2.58
2022-09-04T12:04:14.859Z,2.13
2022-09-04T12:07:00.054Z,2.90
2022-09-04T12:09:40.937Z,2.53
2022-09-04T12:12:11.536Z,5.00
2022-09-04T12:15:08.852Z,3.75
2022-09-04T12:17:57.447Z,1.92
2022-09-04T12:20:51.262Z,2.85
2022-09-04T12:24:05.765Z,2.78
2022-09-04T12:27:03.220Z,4.03
2022-09-04T12:29:51.477Z,3.03
2022-09-04T12:32:50.231Z,3.63
2022-09-04T12:35:45.527Z,3.05
2022-09-04T12:38:37.608Z,4.32
2022-09-04T12:41:16.640Z,2.90
2022-09-04T12:44:08.676Z,3.90
2022-09-04T12:47:00.588Z,2.65
2022-09-04T12:49:33.136Z,5.45
2022-09-04T12:52:23.209Z,6.47
2022-09-04T12:55:04.913Z,6.90
2022-09-04T12:57:56.473Z,4.90
2022-09-04T13:00:26.316Z,2.50
2022-09-04T13:03:38.225Z,2.65
2022-09-04T13:06:10.632Z,3.83
2022-09-04T13:09:01.740Z,2.72
2022-09-04T13:11:50.382Z,2.53
2022-09-04T13:14:16.892Z,2.83
2022-09-04T13:17:05.224Z,3.55
2022-09-04T13:19:49.607Z,2.33
2022-09-04T13:22:22.337Z,4.22
2022-09-04T13:25:09.626Z,5.30
2022-09-04T13:27:58.400Z,3.05
2022-09-04T13:30:28.365Z,2.97
2022-09-04T13:33:40.033Z,3.85
2022-09-04T13:36:28.192Z,3.00
2022-09-04T13:39:16.507Z,3.10
2022-09-04T13:41:46.587Z,5.18
2022-09-04T13:44:42.395Z,2.58
2022-09-04T13:47:22.949Z,3.42
2022-09-04T13:50:08.442Z,3.25
2022-09-04T13:52:53.472Z,8.18
2022-09-04T13:55:24.938Z,3.55
2022-09-04T13:57:59.543Z,2.03
2022-09-04T14:00:30.228Z,3.40
2022-09-04T14:03:03.721Z,4.13
2022-09-04T14:05:33.112Z,2.47
2022-09-04T14:08:04.292Z,3.38
2022-09-04T14:11:05.140Z,2.85
2022-09-04T14:13:51.991Z,2.40
2022-09-04T14:16:19.583Z,2.35
2022-09-04T14:19:22.270Z,4.63
2022-09-04T14:22:14.979Z,1.48
2022-09-04T14:25:00.186Z,3.53
2022-09-04T14:27:48.498Z,2.53
2022-09-04T14:30:23.156Z,2.67
2022-09-04T14:33:08.871Z,2.17
2022-09-04T14:35:59.891Z,3.67
2022-09-04T14:38:50.105Z,1.77
2022-09-04T14:42:12.087Z,2.90
2022-09-04T14:45:09.532Z,2.72
2022-09-04T14:48:03.560Z,3.40
2022-09-04T14:50:36.264Z,1.85
2022-09-04T14:53:08.712Z,2.78
2022-09-04T14:55:41.037Z,4.45
2022-09-04T14:58:20.150Z,1.30
2022-09-04T15:00:54.174Z,3.13
2022-09-04T15:03:31.854Z,2.88
2022-09-04T15:06:12.438Z,2.95
2022-09-04T15:08:40.833Z,2.03
2022-09-04T15:11:31.679Z,2.03
2022-09-04T15:14:24.389Z,2.17
2022-09-04T15:16:55.795Z,3.63
2022-09-04T15:19:37.284Z,2.20
2022-09-04T15:22:16.899Z,2.03
2022-09-04T15:24:52.853Z,3.30
2022-09-04T15:27:36.598Z,1.05
2022-09-04T15:30:11.395Z,3.33
2022-09-04T15:32:42.718Z,2.20
2022-09-04T15:35:32.843Z,2.25
2022-09-04T15:38:24.842Z,4.65
2022-09-04T15:41:17.730Z,1.77
2022-09-04T15:43:51.343Z,5.28
2022-09-04T15:46:27.040Z,5.82
2022-09-04T15:49:35.283Z,3.90
2022-09-04T15:52:26.138Z,4.57
2022-09-04T15:55:02.941Z,2.78
2022-09-04T15:57:56.079Z,6.20
2022-09-04T16:00:26.443Z,5.38
2022-09-04T16:03:16.597Z,4.68
2022-09-04T16:05:59.248Z,3.83
2022-09-04T16:08:44.486Z,7.75
2022-09-04T16:11:23.120Z,3.75
2022-09-04T16:13:49.692Z,3.25
2022-09-04T16:16:28.326Z,2.25
2022-09-04T16:19:14.281Z,3.85
2022-09-04T16:21:46.661Z,1.92
2022-09-04T16:24:24.634Z,4.68
2022-09-04T16:26:54.115Z,2.25
2022-09-04T16:29:30.378Z,4.10
2022-09-04T16:31:58.934Z,2.03
2022-09-04T16:34:28.694Z,7.22
2022-09-04T16:37:05.457Z,3.75
2022-09-04T16:39:49.837Z,2.63
2022-09-04T16:42:28.605Z,1.73
2022-09-04T16:45:03.845Z,3.72
2022-09-04T16:47:41.330Z,1.60
2022-09-04T16:50:13.397Z,1.80
2022-09-04T16:53:13.096Z,4.40
2022-09-04T16:55:49.527Z,3.35
2022-09-04T16:58:56.778Z,2.22
2022-09-04T17:01:32.765Z,3.40
2022-09-04T17:04:28.620Z,4.78
2022-09-04T17:07:07.857Z,2.33
2022-09-04T17:09:38.571Z,1.13
2022-09-04T17:12:18.718Z,2.45
2022-09-04T17:15:08.286Z,7.70
2022-09-04T17:17:41.047Z,1.95
2022-09-04T17:20:09.741Z,7.40
2022-09-04T17:29:01.921Z,3.20
2022-09-04T17:29:16.026Z,2.28
2022-09-04T17:29:36.928Z,4.75
2022-09-04T17:33:59.839Z,4.30
2022-09-04T17:40:31.886Z,4.03
2022-09-04T17:40:48.982Z,2.78
2022-09-04T17:41:55.879Z,2.83
2022-09-04T17:44:47.182Z,3.45
2022-09-04T17:47:38.032Z,5.82
2022-09-04T17:50:12.561Z,5.97
2022-09-04T17:53:01.642Z,3.13
2022-09-04T17:55:38.858Z,2.78
2022-09-04T17:58:40.298Z,3.85
2022-09-04T18:01:19.059Z,3.15
2022-09-04T18:04:12.118Z,4.45
2022-09-04T18:06:51.479Z,4.32
2022-09-04T18:09:32.062Z,3.00
2022-09-04T18:12:13.933Z,2.67
2022-09-04T18:15:27.544Z,7.38
2022-09-04T18:18:00.681Z,4.82
2022-09-04T18:20:42.463Z,3.40
2022-09-04T18:23:50.945Z,6.22
2022-09-04T18:26:48.007Z,6.00
2022-09-04T18:30:34.042Z,5.68
2022-09-04T18:37:12.372Z,7.78
2022-09-04T18:37:26.903Z,10.10
2022-09-04T18:38:41.778Z,5.85
2022-09-04T18:50:31.844Z,8.80
2022-09-04T18:50:51.444Z,6.30
2022-09-04T18:50:53.165Z,3.72
2022-09-04T18:51:20.723Z,6.07
2022-09-04T18:53:53.687Z,4.57
2022-09-04T18:56:30.843Z,16.27
2022-09-04T18:59:02.432Z,5.70
2022-09-04T19:01:39.809Z,6.63
2022-09-04T19:04:19.189Z,4.60
2022-09-04T19:07:06.722Z,8.77
2022-09-04T19:10:18.491Z,3.33
2022-09-04T19:12:56.641Z,8.35
2022-09-04T19:15:27.393Z,11.05
2022-09-04T19:18:21.917Z,5.43
2022-09-04T19:20:52.999Z,11.02
2022-09-04T19:23:32.446Z,4.82
2022-09-04T19:26:07.304Z,5.68
2022-09-04T19:28:52.455Z,7.47
2022-09-04T19:31:38.419Z,10.23
2022-09-04T19:34:14.502Z,8.43
2022-09-04T19:36:49.593Z,9.27
2022-09-04T19:46:05.150Z,11.07
2022-09-04T19:46:08.898Z,8.07
2022-09-04T19:46:18.623Z,4.60
2022-09-04T19:49:46.486Z,5.22
2022-09-04T19:53:24.371Z,7.20
2022-09-04T19:55:24.672Z,19.05
2022-09-04T19:58:02.760Z,14.88
2022-09-04T20:00:42.475Z,5.82
2022-09-04T20:03:29.836Z,9.73
2022-09-04T20:06:20.255Z,12.27
2022-09-04T20:08:53.389Z,15.30
2022-09-04T20:11:35.907Z,6.80
2022-09-04T20:14:16.051Z,6.53
2022-09-04T20:17:13.442Z,8.63
2022-09-04T20:19:48.270Z,10.80
2022-09-04T20:22:46.254Z,8.80
2022-09-04T20:25:24.344Z,11.00
2022-09-04T20:27:56.924Z,9.80
2022-09-04T20:30:25.358Z,6.95
2022-09-04T20:33:02.764Z,13.23
2022-09-04T20:35:47.512Z,10.63
2022-09-04T20:38:30.433Z,19.08
2022-09-04T20:41:35.552Z,10.23
2022-09-04T20:44:28.410Z,11.07
2022-09-04T20:52:49.921Z,8.57
2022-09-04T20:52:51.599Z,6.20
2022-09-04T20:53:46.781Z,11.27
2022-09-04T21:01:45.865Z,8.13
2022-09-04T21:03:17.612Z,13.98
2022-09-04T21:03:21.363Z,5.95
2022-09-04T21:06:07.320Z,8.80
2022-09-04T21:08:54.938Z,6.00
2022-09-04T21:11:40.605Z,10.35
2022-09-04T21:14:44.919Z,10.52
2022-09-04T21:17:35.634Z,6.30
2022-09-04T21:20:20.878Z,8.30
2022-09-04T21:22:50.216Z,8.00
2022-09-04T21:25:35.220Z,6.50
2022-09-04T21:28:19.731Z,8.23
2022-09-04T21:31:08.861Z,7.15
2022-09-04T21:33:53.976Z,9.40
2022-09-04T21:36:30.043Z,12.25
2022-09-04T21:39:21.424Z,12.90
2022-09-04T21:42:32.853Z,8.88
2022-09-04T21:45:17.949Z,5.15
2022-09-04T21:48:06.029Z,7.00
2022-09-04T21:51:23.328Z,12.48
2022-09-04T21:55:29.854Z,8.35
2022-09-04T22:02:26.173Z,7.50
2022-09-04T22:02:42.420Z,7.22
2022-09-04T22:03:35.918Z,6.90
2022-09-04T22:08:10.654Z,10.70
2022-09-04T22:13:32.171Z,13.10
2022-09-04T22:13:41.886Z,8.38
2022-09-04T22:15:52.327Z,7.95
2022-09-04T22:18:32.153Z,9.60
2022-09-04T22:21:04.553Z,8.35
2022-09-04T22:24:08.779Z,7.38
2022-09-04T22:26:53.784Z,8.63
2022-09-04T22:29:50.047Z,7.43
2022-09-04T22:32:25.889Z,10.82
2022-09-04T22:35:17.417Z,7.97
2022-09-04T22:38:05.333Z,7.47
2022-09-04T22:40:55.902Z,7.05
2022-09-04T22:43:29.463Z,6.18
2022-09-04T22:46:37.034Z,9.02
2022-09-04T22:49:34.829Z,8.75
2022-09-04T22:52:42.927Z,16.88
2022-09-04T22:56:05.272Z,14.95
2022-09-04T22:59:25.613Z,7.07
2022-09-04T23:02:13.644Z,9.18
2022-09-04T23:05:14.758Z,14.60
2022-09-04T23:11:28.693Z,6.82
2022-09-04T23:13:52.627Z,13.10
2022-09-04T23:14:18.949Z,7.88
2022-09-04T23:16:53.590Z,6.57
2022-09-04T23:22:29.448Z,11.45
2022-09-04T23:26:46.818Z,9.85
2022-09-04T23:26:50.183Z,7.38
2022-09-04T23:29:21.389Z,7.15
2022-09-04T23:32:22.512Z,10.57
2022-09-04T23:35:14.311Z,7.38
2022-09-04T23:38:09.844Z,8.18
2022-09-04T23:40:55.648Z,11.15
2022-09-04T23:43:46.435Z,11.55
2022-09-04T23:46:38.775Z,7.60
2022-09-04T23:49:25.577Z,11.02
2022-09-04T23:52:03.283Z,10.55
2022-09-04T23:54:45.930Z,11.13
2022-09-04T23:57:26.612Z,7.15
